Time;durP1;ratioP1;P1;durP2;ratioP2;P2;SDS_P1;SDS_P2;PMS_P1;PMS_P2;Temp;Humidity;BMP_temperature;BMP_pressure;BME280_temperature;BME280_humidity;BME280_pressure;Samples;Min_cycle;Max_cycle;Signal;HPM_P1;HPM_P2
2022/07/13 00:01:06;;;;;;;6.30;4.53;;;;;27.10;101998.00;;;;5028696;28;20200;-76
2022/07/13 00:03:34;;;;;;;5.00;4.30;;;;;27.00;102002.00;;;;5040328;28;20257;-76
2022/07/13 00:06:01;;;;;;;6.25;4.28;;;;;27.00;102004.00;;;;5031759;28;20203;-76
2022/07/13 00:08:29;;;;;;;6.03;4.28;;;;;27.00;102000.00;;;;5037595;28;20401;-76
2022/07/13 00:10:57;;;;;;;7.63;4.25;;;;;27.00;102000.00;;;;5033894;28;20232;-76
2022/07/13 00:13:24;;;;;;;5.93;4.72;;;;;27.00;101994.00;;;;5038997;28;20689;-76
2022/07/13 00:15:52;;;;;;;6.97;4.22;;;;;26.90;101986.00;;;;5033214;28;20216;-76
2022/07/13 00:18:19;;;;;;;11.27;4.80;;;;;26.90;101973.00;;;;5045825;28;20198;-76
2022/07/13 00:20:47;;;;;;;4.65;4.10;;;;;26.90;101968.00;;;;5045438;28;20200;-76
2022/07/13 00:23:14;;;;;;;5.15;4.65;;;;;26.90;101970.00;;;;5047278;28;20195;-76
2022/07/13 00:25:42;;;;;;;5.05;4.55;;;;;26.80;101974.00;;;;5039503;28;20194;-76
2022/07/13 00:28:10;;;;;;;5.53;4.60;;;;;26.80;101969.00;;;;5033724;28;20706;-76
2022/07/13 00:30:37;;;;;;;5.28;4.47;;;;;26.80;101974.00;;;;5043615;28;20227;-76
2022/07/13 00:33:05;;;;;;;5.72;4.70;;;;;26.80;101970.00;;;;5028116;28;20197;-76
2022/07/13 00:35:32;;;;;;;7.10;4.82;;;;;26.80;101970.00;;;;5029193;28;20193;-76
2022/07/13 00:37:59;;;;;;;5.32;4.68;;;;;26.70;101964.00;;;;5033791;28;20218;-76
2022/07/13 00:40:27;;;;;;;6.75;4.90;;;;;26.70;101966.00;;;;5047057;28;20215;-76
2022/07/13 00:42:57;;;;;;;6.70;5.38;;;;;26.70;101947.00;;;;5045892;28;20191;-76
2022/07/13 00:45:24;;;;;;;6.10;4.75;;;;;26.70;101960.00;;;;5033815;28;20196;-76
2022/07/13 00:47:52;;;;;;;5.22;4.72;;;;;26.70;101957.00;;;;5039968;28;20200;-76
2022/07/13 00:50:19;;;;;;;5.20;4.68;;;;;26.70;101950.00;;;;5044532;28;20582;-76
2022/07/13 00:52:48;;;;;;;5.25;4.75;;;;;26.60;101941.00;;;;5047757;28;20580;-76
2022/07/13 00:55:16;;;;;;;6.20;5.20;;;;;26.60;101932.00;;;;5042988;28;20219;-76
2022/07/13 00:57:44;;;;;;;5.53;4.72;;;;;26.60;101928.00;;;;5045662;28;20195;-76
2022/07/13 01:00:15;;;;;;;6.15;4.88;;;;;26.60;101927.00;;;;5044522;28;20195;-76
2022/07/13 01:02:44;;;;;;;5.75;5.18;;;;;26.60;101931.00;;;;5044801;28;20191;-76
2022/07/13 01:05:12;;;;;;;8.05;5.10;;;;;26.60;101939.00;;;;5029924;28;20192;-76
2022/07/13 01:07:40;;;;;;;6.07;5.00;;;;;26.60;101936.00;;;;5029346;28;20780;-76
2022/07/13 01:10:10;;;;;;;5.75;5.13;;;;;26.50;101937.00;;;;5031875;28;20196;-76
2022/07/13 01:12:39;;;;;;;11.18;5.95;;;;;26.50;101929.00;;;;5034311;28;20685;-76
2022/07/13 01:15:07;;;;;;;6.07;5.35;;;;;26.50;101924.00;;;;5032248;28;20211;-76
2022/07/13 01:17:37;;;;;;;6.13;5.25;;;;;26.50;101923.00;;;;5046661;28;20208;-76
2022/07/13 01:20:06;;;;;;;6.13;5.53;;;;;26.50;101923.00;;;;5031524;28;20203;-76
2022/07/13 01:22:37;;;;;;;5.78;5.18;;;;;26.50;101919.00;;;;5032318;28;20250;-76
2022/07/13 01:25:07;;;;;;;5.93;5.28;;;;;26.40;101914.00;;;;5030819;28;20211;-76
2022/07/13 01:27:36;;;;;;;7.43;5.07;;;;;26.40;101912.00;;;;5038255;28;20193;-76
2022/07/13 01:30:05;;;;;;;7.75;5.95;;;;;26.40;101911.00;;;;5037075;28;20203;-76
2022/07/13 01:32:46;;;;;;;5.20;4.70;;;;;26.30;101922.00;;;;5041411;28;20195;-76
2022/07/13 01:35:14;;;;;;;6.38;5.50;;;;;26.40;101912.00;;;;5032506;28;20200;-76
2022/07/13 01:37:42;;;;;;;6.18;5.22;;;;;26.40;101914.00;;;;5040584;28;20196;-76
2022/07/13 01:40:12;;;;;;;6.53;5.43;;;;;26.30;101907.00;;;;5037721;28;20199;-76
2022/07/13 01:42:43;;;;;;;6.68;6.00;;;;;26.30;101909.00;;;;5033379;28;20201;-76
2022/07/13 01:45:12;;;;;;;6.15;5.20;;;;;26.30;101913.00;;;;5042998;28;20235;-76
2022/07/13 01:47:40;;;;;;;6.60;5.38;;;;;26.30;101906.00;;;;5030552;28;20196;-76
2022/07/13 01:50:08;;;;;;;7.47;5.40;;;;;26.30;101906.00;;;;5041626;28;20208;-76
2022/07/13 01:52:36;;;;;;;6.20;5.35;;;;;26.30;101909.00;;;;5041258;28;20585;-76
2022/07/13 01:55:04;;;;;;;8.60;5.85;;;;;26.30;101904.00;;;;5033697;28;20207;-76
2022/07/13 01:57:33;;;;;;;6.50;5.85;;;;;26.30;101899.00;;;;5033120;28;20239;-76
2022/07/13 02:00:01;;;;;;;5.65;5.05;;;;;26.30;101901.00;;;;5030679;28;20572;-76
2022/07/13 02:02:29;;;;;;;5.97;5.00;;;;;26.30;101898.00;;;;5039291;28;20224;-76
2022/07/13 02:04:56;;;;;;;6.47;5.80;;;;;26.30;101890.00;;;;5031692;28;20212;-76
2022/07/13 02:07:24;;;;;;;6.72;5.75;;;;;26.30;101894.00;;;;5032900;28;20216;-76
2022/07/13 02:09:51;;;;;;;6.32;5.55;;;;;26.30;101883.00;;;;5035393;28;20231;-76
2022/07/13 02:12:19;;;;;;;6.40;5.75;;;;;26.30;101880.00;;;;5033459;28;20235;-76
2022/07/13 02:14:48;;;;;;;7.00;6.13;;;;;26.30;101878.00;;;;5041464;28;20199;-76
2022/07/13 02:17:15;;;;;;;7.20;6.32;;;;;26.30;101870.00;;;;5036592;28;20684;-76
2022/07/13 02:19:44;;;;;;;7.82;6.68;;;;;26.30;101871.00;;;;5042097;28;20210;-76
2022/07/13 02:22:11;;;;;;;8.70;6.63;;;;;26.30;101874.00;;;;5030957;28;20197;-76
2022/07/13 02:24:39;;;;;;;11.27;6.82;;;;;26.30;101875.00;;;;5037927;28;20621;-76
2022/07/13 02:27:06;;;;;;;7.60;6.80;;;;;26.20;101865.00;;;;5040574;28;20212;-76
2022/07/13 02:29:33;;;;;;;6.65;5.97;;;;;26.20;101862.00;;;;5032558;28;20200;-76
2022/07/13 02:32:06;;;;;;;7.90;6.68;;;;;26.20;101870.00;;;;5041362;28;20228;-76
2022/07/13 02:34:33;;;;;;;8.35;6.10;;;;;26.20;101871.00;;;;5038981;28;20288;-76
2022/07/13 02:37:01;;;;;;;8.05;6.38;;;;;26.20;101854.00;;;;5048791;28;20202;-76
2022/07/13 02:39:28;;;;;;;6.38;5.75;;;;;26.20;101851.00;;;;5042474;28;20197;-76
2022/07/13 02:41:55;;;;;;;8.40;6.78;;;;;26.20;101854.00;;;;5033811;28;20226;-76
2022/07/13 02:44:24;;;;;;;6.53;5.45;;;;;26.20;101851.00;;;;5038921;28;20655;-76
2022/07/13 02:46:51;;;;;;;6.45;5.80;;;;;26.20;101839.00;;;;5030017;28;20203;-76
2022/07/13 02:49:19;;;;;;;9.57;6.40;;;;;26.20;101837.00;;;;5029148;28;20197;-76
2022/07/13 02:51:47;;;;;;;7.45;6.25;;;;;26.20;101836.00;;;;5030655;28;20234;-76
2022/07/13 02:54:14;;;;;;;7.18;6.47;;;;;26.20;101836.00;;;;5029829;28;20193;-76
2022/07/13 02:56:41;;;;;;;9.40;6.57;;;;;26.20;101833.00;;;;5029844;28;20231;-76
2022/07/13 02:59:08;;;;;;;9.55;6.63;;;;;26.20;101825.00;;;;5028968;28;20204;-76
2022/07/13 03:01:36;;;;;;;7.72;6.28;;;;;26.20;101835.00;;;;5031331;28;20197;-76
2022/07/13 03:04:03;;;;;;;11.02;6.47;;;;;26.20;101827.00;;;;5029479;28;20593;-76
2022/07/13 03:06:32;;;;;;;8.07;6.22;;;;;26.20;101832.00;;;;5029616;28;20199;-76
2022/07/13 03:08:59;;;;;;;7.07;6.35;;;;;26.20;101832.00;;;;5029573;28;20196;-76
2022/07/13 03:11:26;;;;;;;8.32;6.55;;;;;26.20;101831.00;;;;5031069;28;20228;-76
2022/07/13 03:13:54;;;;;;;8.88;6.60;;;;;26.20;101827.00;;;;5032755;28;20189;-76
2022/07/13 03:16:21;;;;;;;7.03;6.25;;;;;26.20;101823.00;;;;5030813;28;20216;-76
2022/07/13 03:18:49;;;;;;;6.82;6.10;;;;;26.20;101815.00;;;;5039685;28;20203;-76
2022/07/13 03:21:16;;;;;;;8.10;7.20;;;;;26.20;101828.00;;;;5039096;28;20282;-76
2022/07/13 03:23:45;;;;;;;7.70;6.90;;;;;26.20;101820.00;;;;5034029;28;20199;-76
2022/07/13 03:26:12;;;;;;;11.27;7.00;;;;;26.20;101817.00;;;;5040992;28;20192;-76
2022/07/13 03:28:40;;;;;;;8.60;7.53;;;;;26.20;101817.00;;;;5030572;28;20189;-76
2022/07/13 03:31:07;;;;;;;11.55;7.13;;;;;26.20;101815.00;;;;5046154;28;20231;-76
2022/07/13 03:33:34;;;;;;;8.48;6.97;;;;;26.20;101811.00;;;;5038880;28;20204;-76
2022/07/13 03:36:02;;;;;;;9.15;7.28;;;;;26.10;101807.00;;;;5030117;28;20189;-76
2022/07/13 03:38:31;;;;;;;8.52;6.90;;;;;26.10;101808.00;;;;5033370;28;20583;-76
2022/07/13 03:40:59;;;;;;;9.15;6.85;;;;;26.10;101807.00;;;;5038280;28;20216;-76
2022/07/13 03:43:27;;;;;;;8.10;6.95;;;;;26.10;101812.00;;;;5036846;28;20199;-76
2022/07/13 03:45:54;;;;;;;8.43;7.13;;;;;26.10;101807.00;;;;5038830;28;20200;-76
2022/07/13 03:48:21;;;;;;;9.93;7.72;;;;;26.10;101807.00;;;;5035735;28;20254;-76
2022/07/13 03:50:49;;;;;;;9.65;7.35;;;;;26.10;101808.00;;;;5032574;28;20200;-76
2022/07/13 03:53:17;;;;;;;8.40;7.05;;;;;26.10;101809.00;;;;5027820;28;20192;-76
2022/07/13 03:55:44;;;;;;;7.47;6.45;;;;;26.10;101811.00;;;;5031233;28;20231;-76
2022/07/13 03:58:13;;;;;;;8.43;7.45;;;;;26.10;101807.00;;;;5039216;28;20203;-76
2022/07/13 04:00:41;;;;;;;8.32;7.40;;;;;26.10;101809.00;;;;5038406;28;20204;-76
2022/07/13 04:03:08;;;;;;;8.20;6.82;;;;;26.10;101797.00;;;;5032754;28;20283;-76
2022/07/13 04:05:35;;;;;;;9.18;7.22;;;;;26.10;101789.00;;;;5031983;28;20559;-76
2022/07/13 04:08:02;;;;;;;9.38;7.25;;;;;26.10;101795.00;;;;5043494;28;20215;-76
2022/07/13 04:10:30;;;;;;;8.93;6.70;;;;;26.10;101788.00;;;;5042914;28;20202;-76
2022/07/13 04:12:58;;;;;;;8.38;7.15;;;;;26.10;101801.00;;;;5038351;28;20314;-76
2022/07/13 04:15:27;;;;;;;8.20;7.05;;;;;26.10;101797.00;;;;5038659;28;20200;-76
2022/07/13 04:17:54;;;;;;;10.48;7.57;;;;;26.20;101795.00;;;;5035209;28;20188;-76
2022/07/13 04:20:22;;;;;;;8.38;6.57;;;;;26.20;101788.00;;;;5044938;28;20207;-76
2022/07/13 04:22:49;;;;;;;8.52;6.70;;;;;26.20;101790.00;;;;5034851;28;20212;-76
2022/07/13 04:25:17;;;;;;;8.73;6.63;;;;;26.20;101786.00;;;;5035422;28;20208;-76
2022/07/13 04:27:44;;;;;;;7.40;6.68;;;;;26.20;101786.00;;;;5034685;28;20200;-76
2022/07/13 04:30:11;;;;;;;8.98;7.05;;;;;26.20;101793.00;;;;5037245;28;20200;-76
2022/07/13 04:32:40;;;;;;;8.88;6.85;;;;;26.20;101787.00;;;;5035703;28;20228;-76
2022/07/13 04:35:08;;;;;;;8.05;6.30;;;;;26.20;101790.00;;;;5034563;28;20200;-76
2022/07/13 04:37:36;;;;;;;9.52;7.28;;;;;26.20;101788.00;;;;5031608;28;20207;-76
2022/07/13 04:40:04;;;;;;;12.70;6.50;;;;;26.20;101786.00;;;;5030585;28;20259;-76
2022/07/13 04:42:31;;;;;;;7.00;6.13;;;;;26.20;101782.00;;;;5027920;28;20212;-77
2022/07/13 04:44:59;;;;;;;9.38;6.95;;;;;26.30;101785.00;;;;5036804;28;20200;-76
2022/07/13 04:47:26;;;;;;;8.60;7.30;;;;;26.30;101783.00;;;;5034137;28;20214;-76
2022/07/13 04:49:55;;;;;;;6.43;5.78;;;;;26.30;101786.00;;;;5034292;28;20200;-76
2022/07/13 04:52:22;;;;;;;8.70;5.80;;;;;26.30;101786.00;;;;5038577;28;20211;-76
2022/07/13 04:54:50;;;;;;;6.88;6.18;;;;;26.30;101781.00;;;;5033155;28;20199;-76
2022/07/13 04:57:17;;;;;;;7.32;6.35;;;;;26.30;101780.00;;;;5038672;28;20231;-76
2022/07/13 04:59:44;;;;;;;7.85;6.55;;;;;26.40;101783.00;;;;5032042;28;20214;-76
2022/07/13 05:02:12;;;;;;;8.00;6.32;;;;;26.40;101785.00;;;;5027776;28;20215;-76
2022/07/13 05:04:39;;;;;;;6.88;6.18;;;;;26.40;101780.00;;;;5028111;28;20203;-76
2022/07/13 05:07:07;;;;;;;7.30;6.35;;;;;26.40;101785.00;;;;5033873;28;20200;-76
2022/07/13 05:09:35;;;;;;;7.25;6.40;;;;;26.50;101793.00;;;;5027791;28;20670;-76
2022/07/13 05:12:02;;;;;;;7.55;6.18;;;;;26.50;101793.00;;;;5039397;28;20251;-76
2022/07/13 05:14:29;;;;;;;8.32;6.13;;;;;26.50;101785.00;;;;5032840;28;20199;-76
2022/07/13 05:16:57;;;;;;;7.75;6.30;;;;;26.50;101795.00;;;;5035837;28;20287;-76
2022/07/13 05:19:24;;;;;;;6.82;5.55;;;;;26.60;101794.00;;;;5026531;28;20196;-76
2022/07/13 05:21:51;;;;;;;6.75;5.72;;;;;26.60;101793.00;;;;5027785;28;20200;-77
2022/07/13 05:24:20;;;;;;;7.55;6.75;;;;;26.60;101789.00;;;;5030971;28;20192;-77
2022/07/13 05:26:47;;;;;;;7.75;6.80;;;;;26.60;101786.00;;;;5031277;28;20200;-77
2022/07/13 05:29:14;;;;;;;7.38;6.22;;;;;26.70;101792.00;;;;5036881;28;20204;-77
2022/07/13 05:31:42;;;;;;;6.78;5.85;;;;;26.70;101785.00;;;;5036430;28;20227;-77
2022/07/13 05:34:09;;;;;;;6.93;6.22;;;;;26.70;101789.00;;;;5033621;28;20298;-77
2022/07/13 05:36:36;;;;;;;7.45;5.95;;;;;26.80;101789.00;;;;5037253;28;20582;-76
2022/07/13 05:39:05;;;;;;;6.75;6.05;;;;;26.80;101796.00;;;;5033480;28;20212;-76
2022/07/13 05:41:34;;;;;;;7.43;6.13;;;;;26.80;101791.00;;;;5037405;28;20219;-76
2022/07/13 05:44:01;;;;;;;8.60;6.22;;;;;26.90;101788.00;;;;5026853;28;20200;-76
2022/07/13 05:46:31;;;;;;;7.70;6.20;;;;;26.90;101795.00;;;;5033094;28;20199;-78
2022/07/13 05:48:58;;;;;;;10.88;6.60;;;;;26.90;101800.00;;;;5032579;28;20678;-78
2022/07/13 05:51:26;;;;;;;7.50;5.60;;;;;26.90;101801.00;;;;5028018;28;20201;-77
2022/07/13 05:53:53;;;;;;;5.85;5.25;;;;;27.00;101804.00;;;;5026998;28;20208;-77
2022/07/13 05:56:20;;;;;;;7.68;5.82;;;;;27.00;101791.00;;;;5046569;28;20231;-77
2022/07/13 05:58:49;;;;;;;6.78;5.07;;;;;27.00;101796.00;;;;5030984;28;20201;-77
2022/07/13 06:01:16;;;;;;;6.25;5.57;;;;;27.10;101793.00;;;;5041317;28;20204;-77
2022/07/13 06:03:43;;;;;;;6.78;5.50;;;;;27.10;101787.00;;;;5032185;28;20201;-77
2022/07/13 06:06:10;;;;;;;6.22;4.68;;;;;27.10;101790.00;;;;5030506;28;20200;-77
2022/07/13 06:08:39;;;;;;;7.15;5.40;;;;;27.20;101787.00;;;;5045059;28;20196;-77
2022/07/13 06:11:06;;;;;;;6.80;5.65;;;;;27.20;101788.00;;;;5036418;28;20778;-78
2022/07/13 06:13:33;;;;;;;11.20;4.72;;;;;27.20;101786.00;;;;5035110;28;20598;-77
2022/07/13 06:16:17;;;;;;;5.80;4.32;;;;;27.20;101797.00;;;;5036697;28;20207;-78
2022/07/13 06:18:44;;;;;;;7.63;5.07;;;;;27.30;101798.00;;;;5008252;28;20567;-77
2022/07/13 06:21:13;;;;;;;5.68;3.75;;;;;27.30;101799.00;;;;4994924;28;20210;-78
2022/07/13 06:23:40;;;;;;;5.05;4.22;;;;;27.40;101798.00;;;;4994455;28;20201;-78
2022/07/13 06:26:07;;;;;;;4.85;3.85;;;;;27.40;101797.00;;;;5006157;28;20201;-78
2022/07/13 06:28:34;;;;;;;4.75;4.20;;;;;27.40;101796.00;;;;5008667;28;20203;-78
2022/07/13 06:31:02;;;;;;;4.93;3.42;;;;;27.40;101794.00;;;;5005877;28;20197;-78
2022/07/13 06:33:30;;;;;;;4.93;3.20;;;;;27.40;101797.00;;;;4995654;28;20228;-78
2022/07/13 06:35:58;;;;;;;4.10;3.70;;;;;27.50;101796.00;;;;5004911;28;20209;-79
2022/07/13 06:38:25;;;;;;;4.03;3.33;;;;;27.50;101792.00;;;;5002697;28;20741;-79
2022/07/13 06:40:52;;;;;;;3.60;3.10;;;;;27.60;101793.00;;;;4998567;28;20212;-78
2022/07/13 06:43:19;;;;;;;4.28;3.22;;;;;27.60;101806.00;;;;5001548;28;20212;-79
2022/07/13 06:45:47;;;;;;;7.35;3.90;;;;;27.60;101802.00;;;;5002267;28;20197;-79
2022/07/13 06:48:15;;;;;;;5.43;3.65;;;;;27.70;101805.00;;;;5000673;28;20213;-79
2022/07/13 06:50:44;;;;;;;4.07;2.95;;;;;27.70;101811.00;;;;5027062;28;20574;-78
2022/07/13 06:53:11;;;;;;;5.32;3.67;;;;;27.80;101805.00;;;;5030808;28;20719;-80
2022/07/13 06:55:38;;;;;;;4.47;3.17;;;;;27.80;101798.00;;;;5046385;28;20231;-79
2022/07/13 06:58:06;;;;;;;4.35;3.30;;;;;27.90;101804.00;;;;5031255;28;20188;-80
2022/07/13 07:00:33;;;;;;;4.85;3.60;;;;;27.90;101797.00;;;;5042601;28;20207;-80
2022/07/13 07:03:00;;;;;;;6.93;3.50;;;;;28.00;101794.00;;;;5030896;28;20654;-80
2022/07/13 07:05:28;;;;;;;15.13;4.38;;;;;28.00;101801.00;;;;5030656;28;20578;-81
2022/07/13 07:07:58;;;;;;;4.15;3.75;;;;;28.10;101797.00;;;;5040190;28;20607;-81
2022/07/13 07:10:25;;;;;;;5.15;3.22;;;;;28.10;101791.00;;;;5029469;28;20197;-80
2022/07/13 07:12:52;;;;;;;5.07;3.42;;;;;28.20;101806.00;;;;5037686;28;20228;-80
2022/07/13 07:15:20;;;;;;;3.03;2.75;;;;;28.20;101805.00;;;;5041224;28;20196;-79
2022/07/13 07:17:48;;;;;;;5.00;3.90;;;;;28.20;101810.00;;;;5031487;28;20196;-79
2022/07/13 07:20:16;;;;;;;3.22;2.67;;;;;28.30;101807.00;;;;5042987;28;20196;-80
2022/07/13 07:22:45;;;;;;;6.47;3.25;;;;;28.30;101804.00;;;;5044356;28;20202;-79
2022/07/13 07:25:15;;;;;;;4.38;3.63;;;;;28.30;101803.00;;;;5047815;28;20206;-80
2022/07/13 07:27:43;;;;;;;4.18;3.60;;;;;28.40;101807.00;;;;5033730;28;20204;-80
2022/07/13 07:30:10;;;;;;;3.90;3.05;;;;;28.40;101805.00;;;;5033335;28;20200;-79
2022/07/13 07:32:39;;;;;;;5.40;3.15;;;;;28.50;101806.00;;;;5037956;28;20314;-81
2022/07/13 07:35:07;;;;;;;4.32;3.10;;;;;28.50;101809.00;;;;5037179;28;20201;-80
2022/07/13 07:37:37;;;;;;;4.15;3.05;;;;;28.60;101806.00;;;;5036790;28;20206;-80
2022/07/13 07:40:05;;;;;;;2.88;2.58;;;;;28.60;101805.00;;;;5028798;28;20199;-80
2022/07/13 07:42:33;;;;;;;4.13;3.15;;;;;28.70;101795.00;;;;5029346;28;20737;-81
2022/07/13 07:45:02;;;;;;;4.97;3.75;;;;;28.70;101790.00;;;;5028627;28;20196;-81
2022/07/13 07:47:29;;;;;;;5.18;3.45;;;;;28.80;101790.00;;;;5031209;28;20227;-82
2022/07/13 07:49:56;;;;;;;3.38;3.08;;;;;28.80;101792.00;;;;5035138;28;20201;-81
2022/07/13 07:52:24;;;;;;;3.40;3.10;;;;;28.90;101789.00;;;;5035633;28;20212;-80
2022/07/13 07:54:51;;;;;;;4.20;3.40;;;;;28.90;101790.00;;;;5038442;28;20203;-81
2022/07/13 07:57:18;;;;;;;3.13;2.83;;;;;29.00;101789.00;;;;5031148;28;20228;-80
2022/07/13 07:59:47;;;;;;;3.72;3.25;;;;;29.20;101793.00;;;;5028182;28;20196;-80
2022/07/13 08:02:14;;;;;;;3.53;3.10;;;;;29.30;101789.00;;;;5028478;28;20204;-81
2022/07/13 08:04:42;;;;;;;7.13;3.38;;;;;29.40;101792.00;;;;5028732;28;20200;-81
2022/07/13 08:07:10;;;;;;;4.90;2.88;;;;;29.60;101791.00;;;;5037622;28;20212;-81
2022/07/13 08:09:37;;;;;;;4.75;3.28;;;;;29.70;101785.00;;;;5035812;28;20674;-81
2022/07/13 08:12:05;;;;;;;3.80;3.35;;;;;29.90;101793.00;;;;5027947;28;20197;-80
2022/07/13 08:14:32;;;;;;;5.95;3.25;;;;;30.00;101794.00;;;;5035727;28;20203;-78
2022/07/13 08:17:01;;;;;;;4.68;3.78;;;;;30.20;101801.00;;;;5034865;28;20195;-78
2022/07/13 08:19:28;;;;;;;6.00;3.28;;;;;30.30;101803.00;;;;5038225;28;20211;-78
2022/07/13 08:21:55;;;;;;;4.05;3.13;;;;;30.40;101805.00;;;;5029262;28;20215;-76
2022/07/13 08:24:22;;;;;;;3.55;2.90;;;;;30.50;101805.00;;;;5041598;28;20204;-77
2022/07/13 08:26:53;;;;;;;3.75;2.95;;;;;30.60;101801.00;;;;5047352;28;20203;-77
2022/07/13 08:29:20;;;;;;;5.38;2.95;;;;;30.70;101809.00;;;;5047399;28;20223;-77
2022/07/13 08:31:48;;;;;;;6.60;3.40;;;;;30.80;101810.00;;;;5034127;28;20207;-77
2022/07/13 08:39:51;;;;;;;9.93;3.03;;;;;31.10;101806.00;;;;5031259;28;20207;-78
2022/07/13 08:42:18;;;;;;;4.32;2.53;;;;;31.20;101805.00;;;;5033921;28;20224;-75
2022/07/13 08:44:46;;;;;;;3.67;2.38;;;;;31.40;101801.00;;;;5044998;28;20202;-77
2022/07/13 08:47:13;;;;;;;2.42;2.22;;;;;31.50;101799.00;;;;5036041;28;20677;-75
2022/07/13 08:49:43;;;;;;;3.10;2.15;;;;;31.60;101812.00;;;;5031224;28;20208;-76
2022/07/13 08:52:12;;;;;;;3.42;2.42;;;;;31.80;101811.00;;;;5027997;28;20258;-75
2022/07/13 08:54:39;;;;;;;2.72;1.88;;;;;31.90;101810.00;;;;5036822;28;20226;-75
2022/07/13 08:57:06;;;;;;;4.22;2.58;;;;;32.00;101807.00;;;;5037252;28;20234;-76
2022/07/13 08:59:34;;;;;;;2.83;2.25;;;;;32.10;101811.00;;;;5045112;28;20214;-75
2022/07/13 09:02:04;;;;;;;4.22;2.05;;;;;32.20;101807.00;;;;5039660;28;20261;-76
2022/07/13 09:04:32;;;;;;;2.85;2.35;;;;;32.30;101809.00;;;;5029840;28;20191;-75
2022/07/13 09:07:00;;;;;;;2.13;1.92;;;;;32.40;101805.00;;;;5028123;28;20200;-75
2022/07/13 09:09:32;;;;;;;2.05;1.70;;;;;32.50;101800.00;;;;5035522;28;20202;-75
2022/07/13 09:12:18;;;;;;;2.75;1.50;;;;;32.50;101807.00;;;;5036703;28;20279;-75
2022/07/13 09:14:52;;;;;;;3.45;2.00;;;;;32.60;101806.00;;;;5030038;28;20219;-76
2022/07/13 09:17:36;;;;;;;2.65;1.70;;;;;32.60;101807.00;;;;5028046;28;20227;-75
2022/07/13 09:20:18;;;;;;;3.72;1.92;;;;;32.70;101808.00;;;;5026082;28;20290;-76
2022/07/13 09:22:51;;;;;;;3.28;1.92;;;;;32.80;101811.00;;;;5027693;28;20204;-75
2022/07/13 09:25:30;;;;;;;3.67;1.98;;;;;32.90;101816.00;;;;5026935;28;20654;-76
2022/07/13 09:28:01;;;;;;;1.75;1.40;;;;;33.10;101818.00;;;;5040855;28;20202;-76
2022/07/13 09:30:29;;;;;;;3.70;1.48;;;;;33.20;101813.00;;;;5031891;28;20188;-77
2022/07/13 09:32:58;;;;;;;2.35;1.60;;;;;33.30;101812.00;;;;5032256;28;20729;-76
2022/07/13 09:35:44;;;;;;;1.05;0.95;;;;;33.30;101806.00;;;;5031196;28;20369;-76
2022/07/13 09:38:28;;;;;;;2.35;1.20;;;;;33.30;101798.00;;;;5040207;28;20203;-78
2022/07/13 09:40:55;;;;;;;4.05;1.20;;;;;33.50;101807.00;;;;5047786;28;20250;-77
2022/07/13 09:46:11;;;;;;;1.85;1.13;;;;;33.60;101804.00;;;;5042721;28;20198;-77
2022/07/13 09:48:39;;;;;;;1.75;1.30;;;;;33.60;101820.00;;;;5038866;28;20618;-77
2022/07/13 09:51:07;;;;;;;1.52;1.25;;;;;33.70;101812.00;;;;5036521;28;20223;-76
2022/07/13 09:53:37;;;;;;;2.38;1.10;;;;;33.80;101822.00;;;;5030971;28;20297;-76
2022/07/13 09:56:06;;;;;;;2.20;1.70;;;;;33.80;101818.00;;;;5030092;28;20309;-76
2022/07/13 09:58:35;;;;;;;1.42;1.30;;;;;33.90;101823.00;;;;5031418;28;20214;-76
2022/07/13 10:01:03;;;;;;;1.95;1.38;;;;;33.90;101825.00;;;;5030109;28;20234;-77
2022/07/13 10:03:31;;;;;;;2.03;1.42;;;;;34.00;101825.00;;;;5031027;28;20208;-77
2022/07/13 10:06:00;;;;;;;2.92;1.55;;;;;34.10;101832.00;;;;5030709;28;20705;-78
2022/07/13 10:08:29;;;;;;;2.58;1.30;;;;;34.10;101832.00;;;;5035289;28;20581;-78
2022/07/13 10:10:58;;;;;;;1.58;1.27;;;;;34.20;101829.00;;;;5031128;28;20227;-77
2022/07/13 10:13:26;;;;;;;1.90;1.52;;;;;34.20;101824.00;;;;5030146;28;20223;-78
2022/07/13 10:15:54;;;;;;;2.30;1.20;;;;;34.30;101833.00;;;;5044771;28;20225;-78
2022/07/13 10:18:24;;;;;;;1.77;1.00;;;;;34.30;101831.00;;;;5030217;28;20496;-77
2022/07/13 10:20:55;;;;;;;1.52;1.40;;;;;34.40;101839.00;;;;5030469;28;20206;-76
2022/07/13 10:23:37;;;;;;;1.98;1.08;;;;;34.40;101829.00;;;;5043682;28;20681;-76
2022/07/13 10:26:19;;;;;;;1.55;1.17;;;;;34.40;101835.00;;;;5049719;28;20194;-76
2022/07/13 10:29:02;;;;;;;2.00;1.05;;;;;34.40;101841.00;;;;5030630;28;20199;-76
2022/07/13 10:31:31;;;;;;;2.10;1.30;;;;;34.60;101843.00;;;;5043631;28;20199;-75
2022/07/13 10:33:58;;;;;;;1.45;1.13;;;;;34.60;101831.00;;;;5031050;28;20232;-77
2022/07/13 10:36:51;;;;;;;1.23;1.10;;;;;34.50;101850.00;;;;5038735;28;20214;-77
2022/07/13 10:39:19;;;;;;;1.75;1.20;;;;;34.60;101846.00;;;;5029895;28;20289;-77
2022/07/13 10:41:59;;;;;;;1.05;0.95;;;;;34.50;101843.00;;;;5029148;28;20219;-77
2022/07/13 10:44:38;;;;;;;1.08;0.88;;;;;34.50;101851.00;;;;5029945;28;20199;-77
2022/07/13 10:47:07;;;;;;;1.98;1.27;;;;;34.60;101862.00;;;;5041580;28;20684;-77
2022/07/13 10:49:37;;;;;;;2.42;1.10;;;;;34.60;101859.00;;;;5032953;28;20195;-78
2022/07/13 10:52:50;;;;;;;1.63;1.20;;;;;34.50;101859.00;;;;5030266;28;20199;-78
2022/07/13 10:55:34;;;;;;;1.85;1.73;;;;;34.40;101859.00;;;;5030064;28;20623;-78
2022/07/13 10:58:44;;;;;;;1.17;1.08;;;;;34.40;101855.00;;;;5028727;28;20666;-78
2022/07/13 11:01:48;;;;;;;1.15;1.05;;;;;34.40;101864.00;;;;5029920;28;20196;-78
2022/07/13 11:04:20;;;;;;;2.95;1.30;;;;;34.50;101863.00;;;;5029970;28;20203;-78
2022/07/13 11:07:05;;;;;;;3.67;1.70;;;;;34.40;101871.00;;;;5042956;28;20253;-78
2022/07/13 11:09:32;;;;;;;1.30;1.20;;;;;34.50;101875.00;;;;5044397;28;20199;-78
2022/07/13 11:11:59;;;;;;;1.90;1.20;;;;;34.60;101881.00;;;;5029584;28;20196;-78
2022/07/13 11:14:50;;;;;;;3.13;1.45;;;;;34.50;101879.00;;;;5033654;28;20777;-78
2022/07/13 11:17:19;;;;;;;2.33;1.52;;;;;34.60;101875.00;;;;5038428;28;20199;-78
2022/07/13 11:19:51;;;;;;;1.58;1.30;;;;;34.60;101879.00;;;;5040527;28;20202;-78
2022/07/13 11:22:18;;;;;;;2.38;1.45;;;;;34.60;101890.00;;;;5049848;28;20203;-78
2022/07/13 11:25:15;;;;;;;1.85;1.20;;;;;34.60;101889.00;;;;5044505;28;20203;-77
2022/07/13 11:27:56;;;;;;;1.30;1.20;;;;;34.60;101888.00;;;;5029341;28;20200;-77
2022/07/13 11:30:29;;;;;;;1.77;1.20;;;;;34.50;101875.00;;;;5038564;28;20206;-78
2022/07/13 11:32:56;;;;;;;1.40;1.30;;;;;34.50;101882.00;;;;5036097;28;20194;-78
2022/07/13 11:35:24;;;;;;;1.63;1.30;;;;;34.50;101882.00;;;;5044253;28;20233;-78
2022/07/13 11:37:54;;;;;;;2.10;1.30;;;;;34.40;101882.00;;;;5028310;28;20207;-78
2022/07/13 11:40:28;;;;;;;1.73;1.20;;;;;34.40;101885.00;;;;5029011;28;20281;-78
2022/07/13 11:42:58;;;;;;;2.75;1.33;;;;;34.40;101885.00;;;;5028818;28;20199;-77
2022/07/13 11:45:30;;;;;;;2.58;1.60;;;;;34.30;101891.00;;;;5028437;28;20192;-77
2022/07/13 11:47:58;;;;;;;3.45;1.67;;;;;34.30;101884.00;;;;5037995;28;20191;-78
2022/07/13 11:50:40;;;;;;;1.30;1.20;;;;;34.20;101876.00;;;;5034367;28;20231;-76
2022/07/13 11:53:08;;;;;;;1.63;1.52;;;;;34.30;101896.00;;;;5033627;28;20200;-76
2022/07/13 11:55:36;;;;;;;1.27;1.13;;;;;34.30;101898.00;;;;5030570;28;20231;-76
2022/07/13 11:58:04;;;;;;;1.67;1.30;;;;;34.20;101883.00;;;;5041885;28;20293;-76
2022/07/13 12:00:33;;;;;;;5.22;1.60;;;;;34.20;101893.00;;;;5028601;28;20208;-76
2022/07/13 12:03:00;;;;;;;2.50;1.33;;;;;34.20;101890.00;;;;5028573;28;20199;-76
2022/07/13 12:05:28;;;;;;;2.55;1.63;;;;;34.20;101895.00;;;;5043631;28;20209;-76
2022/07/13 12:08:03;;;;;;;3.83;1.35;;;;;34.00;101881.00;;;;5043537;28;20203;-77
2022/07/13 12:10:31;;;;;;;2.00;1.63;;;;;34.00;101892.00;;;;5032170;28;20195;-77
2022/07/13 12:12:58;;;;;;;2.78;1.67;;;;;34.00;101888.00;;;;5028732;28;20242;-77
2022/07/13 12:15:26;;;;;;;1.60;1.45;;;;;33.90;101886.00;;;;5031823;28;20224;-77
2022/07/13 12:17:54;;;;;;;2.58;1.77;;;;;33.90;101887.00;;;;5029013;28;20198;-77
2022/07/13 12:20:24;;;;;;;1.70;1.50;;;;;33.90;101889.00;;;;5037935;28;20188;-77
2022/07/13 12:22:53;;;;;;;1.45;1.35;;;;;33.90;101885.00;;;;5028554;28;20675;-77
2022/07/13 12:25:25;;;;;;;4.80;1.90;;;;;33.90;101895.00;;;;5028276;28;20204;-77
2022/07/13 12:27:53;;;;;;;1.77;1.67;;;;;34.00;101898.00;;;;5028343;28;20199;-76